Time;durP1;ratioP1;P1;durP2;ratioP2;P2;SDS_P1;SDS_P2;PMS_P1;PMS_P2;Temp;Humidity;BMP_temperature;BMP_pressure;BME280_temperature;BME280_humidity;BME280_pressure;Samples;Min_cycle;Max_cycle;Signal;HPM_P1;HPM_P2
2023/05/02 00:01:55;;;;;;;5.30;4.20;;;14.40;1.00;;;;;;5106754;27;20441;-81
2023/05/02 00:04:25;;;;;;;6.73;4.70;;;14.40;1.00;;;;;;5099669;28;20182;-81
2023/05/02 00:06:55;;;;;;;6.40;4.30;;;14.30;1.00;;;;;;5115521;28;20363;-81
2023/05/02 00:09:54;;;;;;;6.77;4.70;;;14.30;1.00;;;;;;5115250;28;20369;-81
2023/05/02 00:12:20;;;;;;;5.43;3.97;;;14.30;1.00;;;;;;5115589;28;20415;-75
2023/05/02 00:14:46;;;;;;;4.33;3.60;;;14.30;1.00;;;;;;5115285;28;20896;-75
2023/05/02 00:17:19;;;;;;;5.07;3.53;;;14.20;1.00;;;;;;5115355;28;20158;-75
2023/05/02 00:19:45;;;;;;;3.80;3.40;;;14.10;1.00;;;;;;5115614;28;20741;-75
2023/05/02 00:22:25;;;;;;;4.87;4.33;;;14.10;1.00;;;;;;5115189;27;20476;-75
2023/05/02 00:24:58;;;;;;;4.83;3.03;;;14.10;1.00;;;;;;5115103;28;20395;-75
2023/05/02 00:27:25;;;;;;;3.47;3.10;;;14.10;1.00;;;;;;5115503;28;20857;-81
2023/05/02 00:29:55;;;;;;;3.30;2.90;;;14.00;1.00;;;;;;5113788;28;20465;-81
2023/05/02 00:32:26;;;;;;;4.80;3.50;;;13.90;1.00;;;;;;5125939;27;20502;-81
2023/05/02 00:35:24;;;;;;;4.73;3.27;;;13.90;1.00;;;;;;5135377;27;20445;-81
2023/05/02 00:37:55;;;;;;;5.60;3.50;;;13.90;1.00;;;;;;5122816;27;20412;-81
2023/05/02 00:40:21;;;;;;;5.10;4.00;;;13.80;1.00;;;;;;5114889;28;20350;-81
2023/05/02 00:42:46;;;;;;;10.57;3.40;;;13.80;1.00;;;;;;5114864;28;20439;-74
2023/05/02 00:45:12;;;;;;;5.90;3.40;;;13.70;1.00;;;;;;5114852;28;20585;-75
2023/05/02 00:47:38;;;;;;;6.33;3.60;;;13.60;1.00;;;;;;5113890;28;20161;-75
2023/05/02 00:50:04;;;;;;;3.57;3.27;;;13.50;1.00;;;;;;5114566;28;20226;-75
2023/05/02 00:52:31;;;;;;;7.50;3.63;;;13.50;1.00;;;;;;5121618;27;20177;-75
2023/05/02 00:55:02;;;;;;;4.57;3.20;;;13.40;1.00;;;;;;5134747;27;20489;-75
2023/05/02 00:57:35;;;;;;;4.17;3.47;;;13.30;1.00;;;;;;5135263;27;20382;-80
2023/05/02 01:00:51;;;;;;;4.67;3.73;;;13.20;1.00;;;;;;5135303;27;20448;-81
2023/05/02 01:03:50;;;;;;;3.07;2.77;;;13.10;1.00;;;;;;5001362;28;20453;-81
2023/05/02 01:13:07;;;;;;;3.97;3.53;;;12.60;1.00;;;;;;5024588;28;20489;-75
2023/05/02 01:15:36;;;;;;;5.53;3.47;;;12.40;1.00;;;;;;5031770;28;20458;-75
2023/05/02 01:18:22;;;;;;;3.53;3.23;;;12.30;1.00;;;;;;5022935;28;20422;-75
2023/05/02 01:20:57;;;;;;;6.70;4.20;;;12.10;1.00;;;;;;5012034;28;20426;-75
2023/05/02 01:23:34;;;;;;;3.97;3.43;;;12.00;1.00;;;;;;5027297;28;20511;-75
2023/05/02 01:26:25;;;;;;;4.10;3.67;;;12.00;1.00;;;;;;5031551;28;20410;-75
2023/05/02 01:28:58;;;;;;;4.07;3.73;;;11.80;1.00;;;;;;5003470;28;20424;-75
2023/05/02 01:31:45;;;;;;;4.23;3.73;;;11.60;1.00;;;;;;5012020;28;20406;-75
2023/05/02 01:34:13;;;;;;;4.37;3.77;;;11.40;1.00;;;;;;4995284;28;20537;-74
2023/05/02 01:36:44;;;;;;;8.47;4.67;;;11.40;1.00;;;;;;5021833;28;20897;-75
2023/05/02 01:39:18;;;;;;;4.67;3.93;;;11.30;1.00;;;;;;5054442;28;20883;-75
2023/05/02 01:41:45;;;;;;;5.90;4.40;;;11.10;1.00;;;;;;5114053;28;20388;-75
2023/05/02 01:44:37;;;;;;;5.83;4.60;;;11.10;1.00;;;;;;5114475;28;20412;-81
2023/05/02 01:47:14;;;;;;;8.70;3.57;;;11.10;1.00;;;;;;5113911;28;20457;-81
2023/05/02 01:49:45;;;;;;;5.40;4.50;;;11.00;1.00;;;;;;5113857;28;20444;-81
2023/05/02 01:52:48;;;;;;;5.17;4.37;;;11.00;1.00;;;;;;5114250;28;20484;-81
2023/05/02 01:55:37;;;;;;;15.90;4.40;;;10.90;1.00;;;;;;5121934;28;20491;-81
2023/05/02 01:58:11;;;;;;;6.20;4.07;;;10.90;1.00;;;;;;5135681;27;20392;-76
2023/05/02 02:00:38;;;;;;;7.00;4.37;;;10.80;1.00;;;;;;5138552;27;20401;-75
2023/05/02 02:03:06;;;;;;;10.33;4.40;;;10.80;1.00;;;;;;5109411;28;20431;-75
2023/05/02 02:05:35;;;;;;;6.00;4.77;;;10.80;1.00;;;;;;5134578;27;20821;-75
2023/05/02 02:08:01;;;;;;;6.03;4.67;;;10.80;1.00;;;;;;5138513;27;20387;-75
2023/05/02 02:10:30;;;;;;;9.33;5.80;;;10.80;1.00;;;;;;5138481;27;20439;-75
2023/05/02 02:13:06;;;;;;;7.90;5.47;;;10.80;1.00;;;;;;5125467;27;20427;-74
2023/05/02 02:15:39;;;;;;;9.43;5.40;;;10.80;1.00;;;;;;5121299;27;20434;-75
2023/05/02 02:18:12;;;;;;;11.00;4.50;;;10.80;1.00;;;;;;5138394;27;20376;-75
2023/05/02 02:20:45;;;;;;;6.07;3.77;;;11.00;1.00;;;;;;5128742;27;20412;-75
2023/05/02 02:23:13;;;;;;;6.37;4.07;;;11.00;1.00;;;;;;5119594;27;20393;-75
2023/05/02 02:25:51;;;;;;;4.67;4.17;;;10.90;1.00;;;;;;5119492;27;20946;-81
2023/05/02 02:28:49;;;;;;;6.40;4.00;;;10.80;1.00;;;;;;5137592;27;20460;-80
2023/05/02 02:31:19;;;;;;;6.60;4.00;;;10.70;1.00;;;;;;5119326;27;20878;-81
2023/05/02 02:34:01;;;;;;;5.40;4.10;;;10.70;1.00;;;;;;5119223;27;20841;-82
2023/05/02 02:36:59;;;;;;;5.13;4.43;;;10.60;1.00;;;;;;5117143;28;20423;-81
2023/05/02 02:43:11;;;;;;;10.93;4.20;;;10.40;1.00;;;;;;5117065;28;20426;-82
2023/05/02 02:49:14;;;;;;;6.23;4.17;;;10.30;1.00;;;;;;5116941;28;20416;-81
2023/05/02 02:52:07;;;;;;;5.90;4.87;;;10.10;1.00;;;;;;5117317;28;20381;-82
2023/05/02 02:58:37;;;;;;;5.97;4.17;;;10.00;1.00;;;;;;5116863;28;20347;-81
2023/05/02 03:01:05;;;;;;;4.60;4.20;;;9.90;1.00;;;;;;5117099;28;20383;-75
2023/05/02 03:03:32;;;;;;;8.90;4.00;;;9.70;1.00;;;;;;5117052;28;20432;-75
2023/05/02 03:05:58;;;;;;;6.03;4.70;;;9.70;1.00;;;;;;5129136;27;20499;-74
2023/05/02 03:08:43;;;;;;;6.47;4.60;;;9.70;1.00;;;;;;5137741;27;20378;-85
2023/05/02 03:14:30;;;;;;;6.80;4.73;;;9.70;1.00;;;;;;5137562;27;20464;-84
2023/05/02 03:17:01;;;;;;;5.70;4.67;;;9.60;1.00;;;;;;5119780;27;20406;-84
2023/05/02 03:22:48;;;;;;;5.90;5.00;;;9.60;1.00;;;;;;5120231;27;20492;-83
2023/05/02 03:28:36;;;;;;;13.57;5.70;;;9.80;1.00;;;;;;5117714;27;20200;-84
2023/05/02 03:34:24;;;;;;;7.90;5.33;;;9.90;1.00;;;;;;5116179;28;20352;-84
2023/05/02 03:43:33;;;;;;;5.97;5.13;;;10.10;1.00;;;;;;5115895;28;20387;-83
2023/05/02 03:49:21;;;;;;;10.83;5.80;;;10.10;1.00;;;;;;5137110;27;20202;-85
2023/05/02 03:51:46;;;;;;;7.83;6.20;;;10.20;1.00;;;;;;5116939;27;20405;-85
2023/05/02 03:54:13;;;;;;;10.03;6.30;;;10.30;1.00;;;;;;5115893;28;20220;-85
2023/05/02 04:00:13;;;;;;;10.37;6.00;;;10.40;1.00;;;;;;5116021;27;20405;-85
2023/05/02 04:06:00;;;;;;;7.93;5.80;;;10.40;1.00;;;;;;5128820;27;20386;-85
2023/05/02 04:08:49;;;;;;;13.37;6.37;;;10.40;1.00;;;;;;5115732;28;20392;-85
2023/05/02 04:11:19;;;;;;;11.97;6.10;;;10.50;1.00;;;;;;5115864;28;20172;-89
2023/05/02 04:13:51;;;;;;;8.20;5.87;;;10.40;1.00;;;;;;5105002;27;20987;-89
2023/05/02 04:19:38;;;;;;;12.23;7.33;;;10.50;1.00;;;;;;5136214;27;20376;-89
2023/05/02 04:22:24;;;;;;;13.17;8.20;;;10.50;1.00;;;;;;5127405;27;20405;-89
2023/05/02 04:25:30;;;;;;;14.63;8.30;;;10.40;1.00;;;;;;5115890;28;20177;-89
2023/05/02 04:31:18;;;;;;;11.70;7.50;;;10.20;1.00;;;;;;5115366;28;20434;-86
2023/05/02 04:40:50;;;;;;;11.73;7.77;;;10.40;1.00;;;;;;5116340;27;20493;-86
2023/05/02 04:43:31;;;;;;;11.70;8.00;;;10.40;1.00;;;;;;5097436;28;20435;-86
2023/05/02 04:46:25;;;;;;;14.63;8.47;;;10.60;1.00;;;;;;5119363;27;20458;-85
2023/05/02 04:48:50;;;;;;;14.20;9.00;;;10.60;1.00;;;;;;5115277;28;20402;-85
2023/05/02 04:51:27;;;;;;;17.53;10.13;;;10.80;1.00;;;;;;5117748;27;20397;-86
2023/05/02 04:57:43;;;;;;;18.57;12.13;;;10.90;1.00;;;;;;5114848;28;20459;-86
2023/05/02 05:03:31;;;;;;;23.00;12.97;;;11.20;1.00;;;;;;5114826;28;20392;-86
2023/05/02 05:06:25;;;;;;;26.17;13.80;;;11.40;1.00;;;;;;5114006;28;20428;-86
2023/05/02 05:12:12;;;;;;;17.27;10.07;;;11.70;1.00;;;;;;5114487;28;20353;-81
2023/05/02 05:15:24;;;;;;;19.70;11.93;;;11.90;1.00;;;;;;5114083;28;20434;-82
2023/05/02 05:18:13;;;;;;;29.93;13.10;;;12.00;1.00;;;;;;5114086;27;20537;-77
2023/05/02 05:20:55;;;;;;;21.80;12.80;;;12.20;1.00;;;;;;5114508;28;20373;-76
2023/05/02 05:23:25;;;;;;;28.03;10.97;;;12.20;1.00;;;;;;5114073;28;20373;-76
2023/05/02 05:29:13;;;;;;;20.10;12.80;;;12.40;1.00;;;;;;5114133;28;20384;-81
2023/05/02 05:32:13;;;;;;;27.03;15.67;;;12.50;1.00;;;;;;5114420;28;20378;-81
2023/05/02 05:38:00;;;;;;;26.57;15.10;;;12.80;1.00;;;;;;5126572;27;20438;-81
2023/05/02 05:43:48;;;;;;;29.93;17.63;;;13.00;1.00;;;;;;5138834;27;20297;-81
2023/05/02 05:46:31;;;;;;;29.03;16.63;;;13.00;1.00;;;;;;5121061;27;20900;-81
2023/05/02 05:49:27;;;;;;;16.50;11.40;;;13.10;1.00;;;;;;5119451;27;20177;-81
2023/05/02 05:51:53;;;;;;;20.17;10.20;;;13.20;1.00;;;;;;5120180;27;20456;-81
2023/05/02 05:58:18;;;;;;;16.87;11.33;;;13.40;1.00;;;;;;5130864;27;20219;-81
2023/05/02 06:00:49;;;;;;;17.90;12.10;;;13.60;1.00;;;;;;5105661;27;20404;-80
2023/05/02 06:06:37;;;;;;;38.30;18.40;;;13.90;1.00;;;;;;5138257;27;20357;-81
2023/05/02 06:15:46;;;;;;;30.20;19.10;;;14.30;1.00;;;;;;5117866;28;20766;-80
2023/05/02 06:21:36;;;;;;;27.97;16.90;;;14.50;1.00;;;;;;5137191;27;20211;-80
2023/05/02 06:30:56;;;;;;;39.90;22.90;;;14.60;1.00;;;;;;5128901;27;20412;-87
2023/05/02 06:37:01;;;;;;;40.80;24.67;;;14.70;1.00;;;;;;5129504;27;20377;-87
2023/05/02 06:40:18;;;;;;;40.80;23.67;;;14.90;1.00;;;;;;5113755;27;20471;-87
2023/05/02 06:46:07;;;;;;;44.87;24.33;;;15.00;1.00;;;;;;5133412;27;20449;-88
2023/05/02 06:49:27;;;;;;;44.03;25.67;;;15.00;1.00;;;;;;5136451;27;20398;-87
2023/05/02 06:51:53;;;;;;;42.43;23.90;;;15.30;1.00;;;;;;5119572;27;20410;-88
2023/05/02 06:57:41;;;;;;;38.80;23.60;;;15.50;1.00;;;;;;5137475;27;20300;-83
2023/05/02 07:07:31;;;;;;;32.93;19.90;;;15.90;1.00;;;;;;5126102;27;20459;-88
2023/05/02 07:10:48;;;;;;;36.47;21.50;;;16.20;1.00;;;;;;5098949;28;20426;-88
2023/05/02 07:24:07;;;;;;;28.87;17.90;;;16.90;1.00;;;;;;5124880;27;20941;-88
2023/05/02 07:27:25;;;;;;;32.93;19.13;;;16.90;1.00;;;;;;5117396;27;20441;-88
2023/05/02 07:30:07;;;;;;;28.43;18.50;;;16.60;1.00;;;;;;5098732;28;20499;-88
2023/05/02 07:33:12;;;;;;;32.00;18.47;;;16.50;1.00;;;;;;5111538;27;22571;-88
2023/05/02 07:35:49;;;;;;;29.73;18.47;;;16.70;1.00;;;;;;5118399;27;20416;-88
2023/05/02 07:45:09;;;;;;;33.30;19.63;;;17.20;1.00;;;;;;5137154;27;20393;-88
2023/05/02 07:47:55;;;;;;;28.83;18.10;;;17.30;1.00;;;;;;5118813;27;20444;-88
2023/05/02 07:58:00;;;;;;;23.47;15.80;;;17.00;1.00;;;;;;5125581;27;20392;-88
2023/05/02 08:01:18;;;;;;;28.23;17.50;;;17.10;1.00;;;;;;5098113;28;20416;-89
2023/05/02 08:07:06;;;;;;;30.13;16.63;;;17.00;1.00;;;;;;5116165;28;20373;-89
2023/05/02 08:09:55;;;;;;;26.50;16.03;;;16.90;1.00;;;;;;5098843;28;20434;-89
2023/05/02 08:15:43;;;;;;;25.67;14.80;;;16.80;1.00;;;;;;5119765;27;20427;-84
2023/05/02 08:18:37;;;;;;;25.23;15.33;;;16.70;1.00;;;;;;5117405;27;20795;-83
2023/05/02 08:21:13;;;;;;;24.00;15.03;;;16.60;1.00;;;;;;5117417;27;20397;-83
2023/05/02 08:24:19;;;;;;;21.93;12.80;;;16.40;1.00;;;;;;5135157;27;20389;-83
2023/05/02 08:27:07;;;;;;;23.50;13.63;;;16.30;1.00;;;;;;5096775;28;20884;-83
2023/05/02 08:29:43;;;;;;;23.70;13.50;;;16.20;1.00;;;;;;5115016;28;20390;-83
2023/05/02 08:32:49;;;;;;;18.27;12.53;;;16.10;1.00;;;;;;5096640;28;20414;-89
2023/05/02 08:35:49;;;;;;;24.13;13.33;;;16.20;1.00;;;;;;5115106;28;20445;-83
2023/05/02 08:45:00;;;;;;;22.77;13.30;;;16.70;1.00;;;;;;5114872;28;20482;-82
2023/05/02 08:47:28;;;;;;;23.17;13.90;;;16.80;1.00;;;;;;5097115;28;20453;-84
2023/05/02 08:53:17;;;;;;;22.03;13.17;;;17.00;1.00;;;;;;5114579;28;20382;-82
2023/05/02 08:55:43;;;;;;;22.33;13.70;;;17.00;1.00;;;;;;5096300;28;20406;-84
2023/05/02 08:58:13;;;;;;;24.50;13.23;;;16.90;1.00;;;;;;5115652;27;20417;-83
2023/05/02 09:00:51;;;;;;;23.20;14.20;;;16.90;1.00;;;;;;5135407;27;20768;-83
2023/05/02 09:03:33;;;;;;;22.23;12.63;;;17.00;1.00;;;;;;5116911;27;20466;-84
2023/05/02 09:06:17;;;;;;;31.37;14.90;;;17.20;1.00;;;;;;5134874;27;20402;-84
2023/05/02 09:08:49;;;;;;;28.33;15.43;;;17.30;1.00;;;;;;5118684;27;20920;-84
2023/05/02 09:11:37;;;;;;;23.53;12.97;;;17.10;1.00;;;;;;5095650;28;20532;-84
2023/05/02 09:14:43;;;;;;;32.10;14.37;;;17.10;1.00;;;;;;5123487;27;21464;-83
2023/05/02 09:17:09;;;;;;;26.33;12.67;;;17.00;1.00;;;;;;5103409;28;20429;-83
2023/05/02 09:26:20;;;;;;;25.97;12.10;;;17.40;1.00;;;;;;5113951;28;20425;-83
2023/05/02 09:29:07;;;;;;;19.80;11.70;;;17.40;1.00;;;;;;5101016;28;20441;-83
2023/05/02 09:31:55;;;;;;;20.20;10.63;;;17.50;1.00;;;;;;5101499;28;20525;-84
2023/05/02 09:34:25;;;;;;;21.57;10.97;;;17.80;1.00;;;;;;5114409;28;20457;-84
2023/05/02 09:37:04;;;;;;;22.47;12.50;;;18.00;1.00;;;;;;5101773;28;20446;-83
2023/05/02 09:39:30;;;;;;;24.00;12.03;;;18.00;1.00;;;;;;5126722;28;20433;-83
2023/05/02 09:41:56;;;;;;;26.07;11.77;;;17.90;1.00;;;;;;5134605;28;20575;-84
2023/05/02 09:44:35;;;;;;;19.00;11.23;;;18.40;1.00;;;;;;5130725;28;20438;-83
2023/05/02 09:47:01;;;;;;;20.20;11.07;;;18.90;1.00;;;;;;5115520;28;20442;-84
2023/05/02 09:53:05;;;;;;;17.97;10.60;;;19.90;1.00;;;;;;5113851;28;20406;-86
2023/05/02 09:56:00;;;;;;;20.07;10.77;;;19.80;1.00;;;;;;5110792;28;20480;-85
2023/05/02 10:02:03;;;;;;;13.17;8.30;;;19.80;1.00;;;;;;5122472;28;20935;-84
2023/05/02 10:08:07;;;;;;;17.03;7.53;;;19.80;1.00;;;;;;5121097;28;20423;-84
2023/05/02 10:13:55;;;;;;;18.83;9.83;;;19.70;1.00;;;;;;5128933;28;20458;-84
2023/05/02 10:20:05;;;;;;;15.33;9.07;;;19.30;1.00;;;;;;5122819;27;20208;-84
2023/05/02 10:22:33;;;;;;;21.77;10.20;;;19.30;1.00;;;;;;5117515;28;20380;-84
2023/05/02 10:25:02;;;;;;;15.03;9.20;;;19.00;1.00;;;;;;5117487;28;20392;-83
2023/05/02 10:27:49;;;;;;;15.73;8.83;;;18.90;1.00;;;;;;5124319;27;20959;-83
2023/05/02 10:30:26;;;;;;;14.60;8.30;;;18.80;1.00;;;;;;5118321;27;20414;-83
2023/05/02 10:33:20;;;;;;;15.33;8.63;;;18.60;1.00;;;;;;5117341;28;20399;-83
2023/05/02 10:35:55;;;;;;;13.00;7.40;;;18.70;1.00;;;;;;5102409;28;20438;-83
2023/05/02 10:38:49;;;;;;;14.13;8.10;;;18.90;1.00;;;;;;5134610;27;20937;-83
2023/05/02 10:44:39;;;;;;;10.80;6.23;;;19.90;1.00;;;;;;5123279;27;20453;-84
2023/05/02 10:47:18;;;;;;;12.63;5.93;;;20.20;1.00;;;;;;5137570;27;20473;-84
2023/05/02 10:53:26;;;;;;;12.70;7.13;;;20.80;1.00;;;;;;5116553;27;20415;-83
2023/05/02 10:56:43;;;;;;;9.00;6.33;;;20.50;1.00;;;;;;5118345;27;20788;-85
2023/05/02 11:03:07;;;;;;;10.80;7.03;;;20.10;1.00;;;;;;5120330;27;20412;-85
2023/05/02 11:06:26;;;;;;;9.63;6.30;;;19.60;1.00;;;;;;5117116;27;20436;-86
2023/05/02 11:12:51;;;;;;;9.43;6.47;;;18.90;1.00;;;;;;5120607;27;20417;-86
2023/05/02 11:25:28;;;;;;;5.70;4.20;;;19.10;1.00;;;;;;5033953;28;20403;-85
2023/05/02 11:28:04;;;;;;;5.23;4.03;;;19.20;1.00;;;;;;5014043;28;20442;-85
2023/05/02 11:37:14;;;;;;;4.50;3.83;;;19.90;1.00;;;;;;5033757;28;20972;-85
2023/05/02 11:46:22;;;;;;;5.27;3.87;;;20.20;1.00;;;;;;5053361;28;20985;-85
2023/05/02 11:49:28;;;;;;;5.80;3.90;;;20.90;1.00;;;;;;5036338;28;20425;-85
2023/05/02 11:51:53;;;;;;;7.20;3.43;;;21.10;1.00;;;;;;5115569;27;20289;-85
2023/05/02 12:01:14;;;;;;;4.40;3.33;;;21.90;1.00;;;;;;5116039;28;20391;-85
2023/05/02 12:07:02;;;;;;;4.73;3.60;;;22.00;1.00;;;;;;5115793;28;20418;-86
2023/05/02 12:16:49;;;;;;;5.70;3.87;;;21.80;1.00;;;;;;5133920;27;20422;-85
2023/05/02 12:19:26;;;;;;;5.17;3.70;;;21.20;1.00;;;;;;5114430;28;20441;-83
2023/05/02 12:25:14;;;;;;;7.33;3.13;;;20.60;1.00;;;;;;5115294;28;20375;-86
2023/05/02 12:31:09;;;;;;;5.30;3.60;;;20.00;1.00;;;;;;5115376;28;20249;-87
2023/05/02 12:36:57;;;;;;;12.00;4.23;;;19.30;1.00;;;;;;5115504;28;20770;-88
2023/05/02 12:39:46;;;;;;;6.00;4.10;;;19.00;1.00;;;;;;5097467;28;20396;-87
2023/05/02 12:42:21;;;;;;;10.33;4.70;;;18.80;1.00;;;;;;5096361;28;20537;-84
2023/05/02 12:51:31;;;;;;;8.67;4.87;;;18.50;1.00;;;;;;5126718;27;21005;-87
2023/05/02 12:54:02;;;;;;;6.80;4.20;;;18.50;1.00;;;;;;5109747;27;20469;-86
2023/05/02 12:56:47;;;;;;;6.40;4.00;;;18.50;1.00;;;;;;5099709;28;20543;-82
2023/05/02 12:59:31;;;;;;;13.13;4.10;;;18.60;1.00;;;;;;5114292;28;20430;-81
2023/05/02 13:02:07;;;;;;;11.70;4.73;;;18.70;1.00;;;;;;5118482;27;20495;-84
2023/05/02 13:04:43;;;;;;;8.00;4.53;;;18.70;1.00;;;;;;5135055;27;20383;-85
2023/05/02 13:07:13;;;;;;;7.20;4.73;;;18.80;1.00;;;;;;5134525;27;20526;-84
2023/05/02 13:09:49;;;;;;;6.03;3.80;;;19.10;1.00;;;;;;5096021;28;20418;-83
2023/05/02 13:12:20;;;;;;;6.40;4.33;;;19.30;1.00;;;;;;5118842;27;20430;-82
2023/05/02 13:15:05;;;;;;;5.80;3.50;;;19.50;1.00;;;;;;5101271;28;20452;-82
2023/05/02 13:17:32;;;;;;;8.47;3.70;;;19.90;1.00;;;;;;5117779;28;20433;-82
2023/05/02 13:19:58;;;;;;;3.10;2.80;;;20.50;1.00;;;;;;5117298;27;20430;-83
2023/05/02 13:22:25;;;;;;;3.07;2.83;;;20.80;1.00;;;;;;5099476;28;20433;-83
2023/05/02 13:24:51;;;;;;;3.00;2.63;;;21.10;1.00;;;;;;5122221;28;20173;-84
2023/05/02 13:27:17;;;;;;;4.90;3.33;;;20.80;1.00;;;;;;5113868;28;20403;-84
2023/05/02 13:29:47;;;;;;;2.83;2.63;;;20.40;1.00;;;;;;5125278;27;20440;-83
2023/05/02 13:32:13;;;;;;;6.43;3.00;;;20.10;1.00;;;;;;5127186;28;20201;-85
2023/05/02 13:34:39;;;;;;;6.20;4.17;;;19.80;1.00;;;;;;5095859;28;20451;-84
2023/05/02 13:37:05;;;;;;;7.07;4.10;;;19.50;1.00;;;;;;5123384;28;20234;-83
2023/05/02 13:39:38;;;;;;;5.30;4.07;;;19.20;1.00;;;;;;5106191;28;20444;-82
2023/05/02 13:42:13;;;;;;;4.00;3.37;;;18.90;1.00;;;;;;5109698;28;20190;-82
2023/05/02 13:44:44;;;;;;;3.70;3.40;;;18.60;1.00;;;;;;5133732;28;20434;-81
2023/05/02 13:47:09;;;;;;;3.83;3.43;;;18.40;1.00;;;;;;5133642;28;20441;-81
2023/05/02 13:53:49;;;;;;;15.93;3.73;;;18.40;1.00;;;;;;5113253;28;20273;-82
2023/05/02 13:56:15;;;;;;;5.20;4.03;;;18.40;1.00;;;;;;5117443;28;20445;-82
2023/05/02 13:59:31;;;;;;;7.43;3.80;;;18.70;1.00;;;;;;5117442;28;20468;-82
2023/05/02 14:02:19;;;;;;;3.77;3.27;;;19.10;1.00;;;;;;5117917;27;20667;-79
2023/05/02 14:05:02;;;;;;;5.03;3.50;;;19.60;1.00;;;;;;5119816;27;20772;-82
2023/05/02 14:07:49;;;;;;;5.40;3.77;;;20.20;1.00;;;;;;5133637;27;20424;-87
2023/05/02 14:17:00;;;;;;;3.40;3.10;;;21.40;1.00;;;;;;5120001;27;20940;-85
2023/05/02 14:20:09;;;;;;;4.57;3.70;;;21.30;1.00;;;;;;5128766;27;20433;-85
2023/05/02 14:25:57;;;;;;;5.03;3.40;;;20.90;1.00;;;;;;5137794;27;20416;-85
2023/05/02 14:31:44;;;;;;;7.90;4.83;;;20.70;1.00;;;;;;5117489;28;20560;-86
2023/05/02 14:38:19;;;;;;;6.90;4.07;;;20.50;1.00;;;;;;5117208;28;20451;-82
2023/05/02 14:40:50;;;;;;;5.53;3.90;;;20.70;1.00;;;;;;5098584;28;20407;-82
2023/05/02 14:43:16;;;;;;;6.97;5.20;;;20.60;1.00;;;;;;5117401;27;20426;-81
2023/05/02 14:45:49;;;;;;;9.13;4.37;;;20.60;1.00;;;;;;5098197;28;21240;-82
2023/05/02 14:48:16;;;;;;;5.33;4.30;;;20.80;1.00;;;;;;5116473;28;20191;-82
2023/05/02 14:50:42;;;;;;;4.47;3.90;;;20.90;1.00;;;;;;5098418;28;20442;-82
2023/05/02 14:56:30;;;;;;;6.00;4.23;;;20.90;1.00;;;;;;5116650;28;20440;-81
2023/05/02 14:59:13;;;;;;;5.67;4.30;;;20.90;1.00;;;;;;5116446;27;20425;-80
2023/05/02 15:01:56;;;;;;;5.47;4.50;;;21.30;1.00;;;;;;5098207;28;20181;-81
2023/05/02 15:04:26;;;;;;;6.80;3.97;;;21.60;1.00;;;;;;5116549;28;20389;-82
2023/05/02 15:10:13;;;;;;;6.00;3.80;;;21.40;1.00;;;;;;5116507;27;20430;-87
2023/05/02 15:13:31;;;;;;;4.03;3.73;;;21.30;1.00;;;;;;5099079;28;20416;-89
2023/05/02 15:16:09;;;;;;;5.10;4.60;;;21.40;1.00;;;;;;5130923;27;20195;-81
2023/05/02 15:18:55;;;;;;;8.70;4.63;;;21.90;1.00;;;;;;5111531;28;20439;-80
2023/05/02 15:21:21;;;;;;;5.10;4.30;;;23.80;1.00;;;;;;5099876;27;20505;-84
2023/05/02 15:23:47;;;;;;;4.40;4.10;;;23.80;1.00;;;;;;5109383;27;20906;-81
2023/05/02 15:26:13;;;;;;;7.90;4.40;;;25.50;1.00;;;;;;5136379;27;20701;-82
2023/05/02 15:28:44;;;;;;;4.73;3.90;;;26.30;1.00;;;;;;5107675;28;20194;-81
2023/05/02 15:31:20;;;;;;;4.80;4.17;;;27.40;1.00;;;;;;5097248;28;20238;-81
2023/05/02 15:33:56;;;;;;;4.00;3.70;;;28.20;1.00;;;;;;5099444;27;20477;-80
2023/05/02 15:36:43;;;;;;;7.00;4.10;;;29.80;1.00;;;;;;5136405;27;20386;-80
2023/05/02 15:39:31;;;;;;;4.23;3.83;;;31.30;1.00;;;;;;5118185;27;20426;-89
2023/05/02 15:42:19;;;;;;;11.03;3.60;;;31.70;1.00;;;;;;5113564;27;20434;-91
2023/05/02 15:48:07;;;;;;;3.97;3.53;;;32.10;1.00;;;;;;5132314;27;20420;-88
2023/05/02 15:50:33;;;;;;;3.90;3.50;;;32.50;1.00;;;;;;5101022;27;20427;-79
2023/05/02 15:53:51;;;;;;;5.03;3.70;;;32.70;1.00;;;;;;5116160;27;20213;-88
2023/05/02 15:56:20;;;;;;;4.33;3.47;;;33.10;1.00;;;;;;5115539;28;20170;-86
2023/05/02 15:59:25;;;;;;;3.20;2.80;;;32.40;1.00;;;;;;5130199;27;20426;-86
2023/05/02 16:01:56;;;;;;;3.33;3.03;;;31.40;1.00;;;;;;5136107;27;20375;-86
2023/05/02 16:07:43;;;;;;;2.90;2.57;;;32.50;1.00;;;;;;5117331;27;20433;-86
2023/05/02 16:10:20;;;;;;;5.10;2.63;;;32.70;1.00;;;;;;5135923;27;20379;-87
2023/05/02 16:16:07;;;;;;;2.87;2.60;;;32.20;1.00;;;;;;5132933;27;20468;-85
2023/05/02 16:21:54;;;;;;;4.97;2.40;;;32.70;1.00;;;;;;5135726;27;20156;-86
2023/05/02 16:24:43;;;;;;;3.47;2.60;;;33.40;1.00;;;;;;5123710;27;20443;-85
2023/05/02 16:27:09;;;;;;;2.60;2.50;;;33.70;1.00;;;;;;5117000;27;20423;-85
2023/05/02 16:33:08;;;;;;;2.63;2.20;;;34.00;1.00;;;;;;5114741;28;20174;-86
2023/05/02 16:38:55;;;;;;;7.60;3.30;;;33.60;1.00;;;;;;5135624;27;20487;-86
2023/05/02 16:41:22;;;;;;;3.83;3.10;;;33.20;1.00;;;;;;5116085;27;20434;-86
2023/05/02 16:43:48;;;;;;;4.97;3.00;;;32.20;1.00;;;;;;5114048;27;20184;-86
2023/05/02 16:47:07;;;;;;;4.30;2.90;;;32.10;1.00;;;;;;5096531;28;20445;-86
2023/05/02 16:49:38;;;;;;;5.07;3.80;;;32.30;1.00;;;;;;5114482;28;20423;-86
2023/05/02 16:52:23;;;;;;;5.20;3.10;;;32.60;1.00;;;;;;5114543;28;20396;-86
2023/05/02 16:55:14;;;;;;;5.17;3.10;;;32.60;1.00;;;;;;5122854;27;20454;-87
2023/05/02 16:57:44;;;;;;;3.30;3.00;;;33.00;1.00;;;;;;5116910;27;20891;-86
2023/05/02 17:00:15;;;;;;;6.63;3.40;;;33.10;1.00;;;;;;5132650;27;20447;-84
2023/05/02 17:02:44;;;;;;;3.17;2.70;;;33.50;1.00;;;;;;5132448;27;20429;-83
2023/05/02 17:05:26;;;;;;;3.10;2.80;;;33.20;1.00;;;;;;5116325;27;20411;-83
2023/05/02 17:11:13;;;;;;;5.10;3.27;;;31.80;1.00;;;;;;5127281;27;20468;-88
2023/05/02 17:17:02;;;;;;;5.63;3.30;;;31.50;1.00;;;;;;5115045;28;20442;-89
2023/05/02 17:23:08;;;;;;;3.33;2.80;;;30.80;1.00;;;;;;5123667;27;20419;-82
2023/05/02 17:25:44;;;;;;;3.03;2.60;;;29.70;1.00;;;;;;5121538;27;20416;-82
2023/05/02 17:28:14;;;;;;;3.43;2.97;;;29.70;1.00;;;;;;5126819;27;20550;-83
2023/05/02 17:30:43;;;;;;;3.27;2.97;;;29.60;1.00;;;;;;5115714;28;20413;-83
2023/05/02 17:33:20;;;;;;;4.33;3.10;;;28.70;1.00;;;;;;5132211;28;20519;-83
2023/05/02 17:35:46;;;;;;;4.30;3.37;;;27.90;1.00;;;;;;5115982;28;21178;-88
2023/05/02 17:41:36;;;;;;;3.60;3.30;;;25.60;1.00;;;;;;5126560;28;20460;-88
2023/05/02 17:44:49;;;;;;;4.60;3.40;;;23.80;1.00;;;;;;5095991;28;20458;-86
2023/05/02 17:50:40;;;;;;;3.50;3.20;;;21.40;1.00;;;;;;5113882;28;20458;-85
2023/05/02 17:53:06;;;;;;;3.57;3.27;;;20.00;1.00;;;;;;5103229;28;20433;-86
2023/05/02 17:55:43;;;;;;;5.70;3.77;;;19.20;1.00;;;;;;5134335;28;20431;-85
2023/05/02 17:59:01;;;;;;;5.30;2.83;;;18.60;1.00;;;;;;5134147;28;20398;-83
2023/05/02 18:02:07;;;;;;;4.40;3.20;;;18.10;1.00;;;;;;5134102;28;20393;-83
2023/05/02 18:04:38;;;;;;;4.30;3.07;;;17.40;1.00;;;;;;5129722;28;20477;-83
2023/05/02 18:07:22;;;;;;;5.47;3.47;;;17.00;1.00;;;;;;5134081;28;20884;-82
2023/05/02 18:13:10;;;;;;;4.77;3.27;;;16.30;1.00;;;;;;5132238;28;20411;-82
2023/05/02 18:19:02;;;;;;;3.33;2.77;;;15.80;1.00;;;;;;5112777;28;20190;-81
2023/05/02 18:21:34;;;;;;;4.83;3.30;;;15.50;1.00;;;;;;5113261;28;20520;-81
2023/05/02 18:24:02;;;;;;;4.67;3.10;;;15.30;1.00;;;;;;5113350;28;20438;-79
2023/05/02 18:26:44;;;;;;;11.23;2.70;;;15.10;1.00;;;;;;5118058;28;20787;-79
2023/05/02 18:29:37;;;;;;;5.00;3.50;;;15.00;1.00;;;;;;5112755;28;20451;-79
2023/05/02 18:32:08;;;;;;;4.97;3.07;;;14.80;1.00;;;;;;5113383;28;20415;-77
2023/05/02 18:34:55;;;;;;;3.90;3.30;;;14.60;1.00;;;;;;5113351;28;20543;-80
2023/05/02 18:37:29;;;;;;;3.17;2.60;;;14.40;1.00;;;;;;5097853;28;20418;-79
2023/05/02 18:40:31;;;;;;;3.67;3.00;;;14.20;1.00;;;;;;5095783;28;20489;-79
2023/05/02 18:43:37;;;;;;;3.43;3.13;;;13.90;1.00;;;;;;5107394;28;20419;-78
2023/05/02 18:46:03;;;;;;;8.87;3.83;;;13.80;1.00;;;;;;5116108;27;20487;-79
2023/05/02 18:48:49;;;;;;;6.97;3.33;;;13.60;1.00;;;;;;5117547;27;20400;-78
2023/05/02 18:51:20;;;;;;;4.20;2.97;;;13.50;1.00;;;;;;5137010;27;20433;-76
2023/05/02 18:53:47;;;;;;;4.33;3.53;;;13.40;1.00;;;;;;5127881;27;20449;-82
2023/05/02 19:00:04;;;;;;;3.63;3.30;;;13.10;1.00;;;;;;5135945;27;20428;-82
2023/05/02 19:02:31;;;;;;;6.23;3.30;;;13.00;1.00;;;;;;5104739;27;20439;-82
2023/05/02 19:05:14;;;;;;;7.30;3.80;;;12.90;1.00;;;;;;5135842;27;20400;-83
2023/05/02 19:07:56;;;;;;;9.13;3.60;;;12.80;1.00;;;;;;5117524;27;20413;-83
2023/05/02 19:10:43;;;;;;;3.57;2.80;;;12.70;1.00;;;;;;5120592;27;20438;-79
2023/05/02 19:13:15;;;;;;;5.67;3.97;;;12.60;1.00;;;;;;5120225;27;20409;-79
2023/05/02 19:15:44;;;;;;;6.27;3.87;;;12.50;1.00;;;;;;5108198;27;21038;-77
2023/05/02 19:18:51;;;;;;;13.30;4.23;;;12.40;1.00;;;;;;5104658;28;20416;-79
2023/05/02 19:21:20;;;;;;;4.47;3.70;;;12.30;1.00;;;;;;5116272;28;20742;-80